createdAt,value
2019-03-25T00:01:21.225Z,11.17
2019-03-25T00:03:50.791Z,11.18
2019-03-25T00:06:20.341Z,11.17
2019-03-25T00:09:03.260Z,11.14
2019-03-25T00:11:21.233Z,11.06
2019-03-25T00:13:50.825Z,11.00
2019-03-25T00:16:20.376Z,10.94
2019-03-25T00:18:50.008Z,10.89
2019-03-25T00:21:19.709Z,10.84
2019-03-25T00:23:49.307Z,10.77
2019-03-25T00:26:18.970Z,10.73
2019-03-25T00:28:48.566Z,10.69
2019-03-25T00:31:18.129Z,10.64
2019-03-25T00:33:47.638Z,10.61
2019-03-25T00:36:17.250Z,10.57
2019-03-25T00:38:46.828Z,10.52
2019-03-25T00:41:16.464Z,10.50
2019-03-25T00:43:46.007Z,10.47
2019-03-25T00:46:15.647Z,10.43
2019-03-25T00:48:45.242Z,10.41
2019-03-25T00:51:14.852Z,10.40
2019-03-25T00:53:44.454Z,10.39
2019-03-25T00:56:14.035Z,10.39
2019-03-25T00:58:43.676Z,10.41
2019-03-25T01:01:13.351Z,10.47
2019-03-25T01:03:42.937Z,10.52
2019-03-25T01:06:12.550Z,10.60
2019-03-25T01:08:42.077Z,10.68
2019-03-25T01:11:11.678Z,10.74
2019-03-25T01:13:41.302Z,10.75
2019-03-25T01:16:10.827Z,10.77
2019-03-25T01:18:40.442Z,10.83
2019-03-25T01:21:09.970Z,10.86
2019-03-25T01:23:39.592Z,10.87
2019-03-25T01:26:09.129Z,10.93
2019-03-25T01:28:38.741Z,10.97
2019-03-25T01:31:08.271Z,11.03
2019-03-25T01:33:37.804Z,11.00
2019-03-25T01:36:07.307Z,11.01
2019-03-25T01:38:36.895Z,11.02
2019-03-25T01:41:06.442Z,11.01
2019-03-25T01:43:36.032Z,10.99
2019-03-25T01:46:05.582Z,11.00
2019-03-25T01:48:35.081Z,11.01
2019-03-25T01:51:04.665Z,11.02
2019-03-25T01:53:34.273Z,11.04
2019-03-25T01:56:03.909Z,11.01
2019-03-25T01:58:33.500Z,11.06
2019-03-25T02:01:03.022Z,11.01
2019-03-25T02:03:32.629Z,11.07
2019-03-25T02:06:02.165Z,11.10
2019-03-25T02:08:31.677Z,11.13
2019-03-25T02:11:01.276Z,11.13
2019-03-25T02:13:30.932Z,11.17
2019-03-25T02:16:00.437Z,11.20
2019-03-25T02:18:29.975Z,11.22
2019-03-25T02:20:59.514Z,11.25
2019-03-25T02:23:29.205Z,11.30
2019-03-25T02:25:58.789Z,11.27
2019-03-25T02:28:31.432Z,11.26
2019-03-25T02:31:01.034Z,11.28
2019-03-25T02:33:30.660Z,11.29
2019-03-25T02:36:00.128Z,11.32
2019-03-25T02:38:32.235Z,11.35
2019-03-25T02:41:01.803Z,11.34
2019-03-25T02:43:31.351Z,11.37
2019-03-25T02:46:01.140Z,11.38
2019-03-25T02:48:30.746Z,11.38
2019-03-25T02:51:00.332Z,11.38
2019-03-25T02:53:31.682Z,11.36
2019-03-25T02:56:01.327Z,11.39
2019-03-25T02:58:30.926Z,11.38
2019-03-25T03:01:00.432Z,11.38
2019-03-25T03:03:30.067Z,11.36
2019-03-25T03:05:59.639Z,11.37
2019-03-25T03:08:29.210Z,11.35
2019-03-25T03:10:58.868Z,11.38
2019-03-25T03:13:28.434Z,11.38
2019-03-25T03:15:58.066Z,11.38
2019-03-25T03:18:27.661Z,11.35
2019-03-25T03:20:57.241Z,11.36
2019-03-25T03:23:26.859Z,11.42
2019-03-25T03:25:58.129Z,11.39
2019-03-25T03:28:27.767Z,11.43
2019-03-25T03:30:57.431Z,11.45
2019-03-25T03:33:26.927Z,11.45
2019-03-25T03:35:56.613Z,11.46
2019-03-25T03:38:26.184Z,11.49
2019-03-25T03:40:55.797Z,11.48
2019-03-25T03:43:25.361Z,11.48
2019-03-25T03:45:54.872Z,11.50
2019-03-25T03:48:24.371Z,11.53
2019-03-25T03:50:54.068Z,11.56
2019-03-25T03:53:23.606Z,11.61
2019-03-25T03:55:53.211Z,11.61
2019-03-25T03:58:23.406Z,11.67
2019-03-25T04:00:53.029Z,11.70
2019-03-25T04:03:22.630Z,11.71
2019-03-25T04:05:52.261Z,11.75
2019-03-25T04:08:21.837Z,11.74
2019-03-25T04:10:51.454Z,11.75
2019-03-25T04:13:21.034Z,11.76
2019-03-25T04:15:50.600Z,11.77
2019-03-25T04:18:20.101Z,11.77
2019-03-25T04:20:49.696Z,11.78
2019-03-25T04:23:19.281Z,11.76
2019-03-25T04:25:48.856Z,11.72
2019-03-25T04:28:18.512Z,11.73
2019-03-25T04:30:48.144Z,11.74
2019-03-25T04:33:17.648Z,11.69
2019-03-25T04:35:47.353Z,11.67
2019-03-25T04:38:16.995Z,11.68
2019-03-25T04:40:46.585Z,11.71
2019-03-25T04:43:16.205Z,11.75
2019-03-25T04:45:45.782Z,11.78
2019-03-25T04:48:15.290Z,11.79
2019-03-25T04:50:44.848Z,11.79
2019-03-25T04:53:14.441Z,11.81
2019-03-25T04:55:44.038Z,11.79
2019-03-25T04:58:13.714Z,11.77
2019-03-25T05:00:43.245Z,11.77
2019-03-25T05:03:12.789Z,11.78
2019-03-25T05:05:42.400Z,11.80
2019-03-25T05:08:11.973Z,11.80
2019-03-25T05:10:41.434Z,11.82
2019-03-25T05:13:11.003Z,11.86
2019-03-25T05:15:40.547Z,11.86
2019-03-25T05:18:10.128Z,11.89
2019-03-25T05:20:39.597Z,11.90
2019-03-25T05:23:09.200Z,11.88
2019-03-25T05:25:38.658Z,11.88
2019-03-25T05:28:08.069Z,11.89
2019-03-25T05:30:37.633Z,11.87
2019-03-25T05:33:07.235Z,11.89
2019-03-25T05:35:36.801Z,11.92
2019-03-25T05:38:06.357Z,11.87
2019-03-25T05:40:35.955Z,11.82
2019-03-25T05:43:05.462Z,11.86
2019-03-25T05:45:35.017Z,11.84
2019-03-25T05:48:04.607Z,11.86
2019-03-25T05:50:34.215Z,11.87
2019-03-25T05:53:03.942Z,11.85
2019-03-25T05:55:33.529Z,11.82
2019-03-25T05:58:03.141Z,11.83
2019-03-25T06:00:35.054Z,11.79
2019-03-25T06:03:04.583Z,11.80
2019-03-25T06:05:34.155Z,11.78
2019-03-25T06:08:03.762Z,11.74
2019-03-25T06:10:33.291Z,11.73
2019-03-25T06:13:03.306Z,11.75
2019-03-25T06:15:32.976Z,11.80
2019-03-25T06:18:02.569Z,11.82
2019-03-25T06:20:33.318Z,11.82
2019-03-25T06:23:02.856Z,11.82
2019-03-25T06:25:32.485Z,11.84
2019-03-25T06:28:02.043Z,11.85
2019-03-25T06:30:31.474Z,11.89
2019-03-25T06:33:11.967Z,11.90
2019-03-25T06:35:32.434Z,11.97
2019-03-25T06:38:02.036Z,11.99
2019-03-25T06:40:31.687Z,12.01
2019-03-25T06:43:01.265Z,12.07
2019-03-25T06:45:30.857Z,12.09
2019-03-25T06:48:00.565Z,12.11
2019-03-25T06:50:31.332Z,12.16
2019-03-25T06:53:08.069Z,12.19
2019-03-25T06:55:37.907Z,12.23
2019-03-25T06:58:18.266Z,12.29
2019-03-25T07:01:55.674Z,12.36
2019-03-25T07:04:28.937Z,12.48
2019-03-25T07:11:30.391Z,12.77
2019-03-25T07:14:30.710Z,12.73
2019-03-25T07:17:00.757Z,12.63
2019-03-25T07:20:07.717Z,12.58
2019-03-25T07:22:40.759Z,12.46
2019-03-25T07:25:17.724Z,12.43
2019-03-25T07:28:11.522Z,12.42
2019-03-25T07:34:14.227Z,12.39
2019-03-25T07:38:18.749Z,12.38
2019-03-25T07:51:44.560Z,12.56
2019-03-25T07:54:14.234Z,12.65
2019-03-25T07:56:44.101Z,12.73
2019-03-25T07:59:13.789Z,12.82
2019-03-25T08:01:43.507Z,12.87
2019-03-25T08:04:13.160Z,12.87
2019-03-25T08:06:42.866Z,12.87
2019-03-25T08:09:12.476Z,12.82
2019-03-25T08:11:42.380Z,12.86
2019-03-25T08:14:11.968Z,12.91
2019-03-25T08:16:41.623Z,12.94
2019-03-25T08:19:11.501Z,13.01
2019-03-25T08:21:41.379Z,13.11
2019-03-25T08:24:17.436Z,13.10
2019-03-25T08:26:47.282Z,13.17
2019-03-25T08:29:18.943Z,13.22
2019-03-25T08:31:48.967Z,13.30
2019-03-25T08:34:22.583Z,13.50
2019-03-25T08:36:52.407Z,13.52
2019-03-25T08:39:22.232Z,13.57
2019-03-25T08:41:52.091Z,13.65
2019-03-25T08:44:26.139Z,13.77
2019-03-25T08:47:15.562Z,13.85
2019-03-25T08:49:49.456Z,13.90
2019-03-25T08:54:55.107Z,13.71
2019-03-25T08:57:25.096Z,13.64
2019-03-25T09:00:03.936Z,13.60
2019-03-25T09:02:55.214Z,13.53
2019-03-25T09:05:24.974Z,13.65
2019-03-25T09:18:21.847Z,13.89
2019-03-25T09:19:13.850Z,13.72
2019-03-25T09:25:40.632Z,13.37
2019-03-25T09:28:10.309Z,13.24
2019-03-25T09:34:37.432Z,13.08
2019-03-25T09:37:52.870Z,13.03
2019-03-25T09:41:20.482Z,13.07
2019-03-25T09:47:04.480Z,14.41
2019-03-25T09:49:34.237Z,14.75
2019-03-25T10:12:32.476Z,26.85
2019-03-25T10:15:47.814Z,26.61
2019-03-25T12:44:06.245Z,18.59
2019-03-25T12:46:37.383Z,18.52
2019-03-25T12:49:07.519Z,18.22
2019-03-25T12:51:37.515Z,18.07
2019-03-25T12:54:10.958Z,17.99
2019-03-25T12:56:40.518Z,17.86
2019-03-25T12:59:10.339Z,17.79
2019-03-25T13:01:40.025Z,17.76
2019-03-25T13:04:09.620Z,17.63
2019-03-25T13:06:39.206Z,16.95
2019-03-25T13:09:09.063Z,17.49
2019-03-25T13:11:38.689Z,17.56
2019-03-25T13:14:08.579Z,17.70
2019-03-25T13:16:38.244Z,17.92
2019-03-25T13:19:08.166Z,18.11
2019-03-25T13:21:37.838Z,18.29
2019-03-25T13:24:07.564Z,18.34
2019-03-25T13:26:37.013Z,18.27
2019-03-25T13:29:06.854Z,17.94
2019-03-25T13:31:37.212Z,17.49
2019-03-25T13:34:06.884Z,16.99
2019-03-25T13:36:36.429Z,16.66
2019-03-25T13:39:06.938Z,16.63
2019-03-25T13:41:36.543Z,16.64
2019-03-25T13:44:06.289Z,16.70
2019-03-25T13:46:36.085Z,16.71
2019-03-25T13:49:05.719Z,16.91
2019-03-25T13:51:35.355Z,16.98
2019-03-25T13:54:06.935Z,16.85
2019-03-25T13:56:36.364Z,16.66
2019-03-25T13:59:05.921Z,16.42
2019-03-25T14:01:35.551Z,16.14
2019-03-25T14:04:05.092Z,15.95
2019-03-25T14:06:34.744Z,15.97
2019-03-25T14:09:05.408Z,16.11
2019-03-25T14:11:35.130Z,16.22
2019-03-25T14:14:04.721Z,16.28
2019-03-25T14:16:34.244Z,16.33
2019-03-25T14:19:03.877Z,16.29
2019-03-25T14:21:33.428Z,16.26
2019-03-25T14:24:03.167Z,16.13
2019-03-25T14:26:32.913Z,15.98
2019-03-25T14:29:02.433Z,15.88
2019-03-25T14:31:32.067Z,15.75
2019-03-25T14:34:01.685Z,15.64
2019-03-25T14:36:31.465Z,15.47
2019-03-25T14:39:01.110Z,15.22
2019-03-25T14:41:31.847Z,14.96
2019-03-25T14:44:01.510Z,14.76
2019-03-25T14:46:31.499Z,14.68
2019-03-25T14:49:01.164Z,14.66
2019-03-25T14:51:30.782Z,14.71
2019-03-25T14:54:00.403Z,14.72
2019-03-25T14:56:30.034Z,14.71
2019-03-25T14:58:59.675Z,14.60
2019-03-25T15:01:29.231Z,14.54
2019-03-25T15:03:58.907Z,14.38
2019-03-25T15:06:28.473Z,14.27
2019-03-25T15:08:58.205Z,14.21
2019-03-25T15:11:27.793Z,14.14
2019-03-25T15:13:57.425Z,14.02
2019-03-25T15:16:27.103Z,13.84
2019-03-25T15:18:56.703Z,13.79
2019-03-25T15:21:26.353Z,13.71
2019-03-25T15:23:55.960Z,13.82
2019-03-25T15:26:25.546Z,13.85
2019-03-25T15:28:55.121Z,13.92
2019-03-25T15:31:24.755Z,13.97
2019-03-25T15:33:54.777Z,14.01
2019-03-25T15:36:24.371Z,14.08
2019-03-25T15:38:53.970Z,14.05
2019-03-25T15:41:23.629Z,13.99
2019-03-25T15:43:53.212Z,13.98
2019-03-25T15:46:22.908Z,14.12
2019-03-25T15:48:52.601Z,14.33
2019-03-25T15:51:22.276Z,14.50
2019-03-25T15:53:51.956Z,14.64
2019-03-25T15:56:21.604Z,14.72
2019-03-25T15:58:51.185Z,14.76
2019-03-25T16:01:20.833Z,14.87
2019-03-25T16:03:50.479Z,14.82
2019-03-25T16:06:22.327Z,14.75
2019-03-25T16:08:51.424Z,14.69
2019-03-25T16:11:21.243Z,14.70
2019-03-25T16:13:50.918Z,14.66
2019-03-25T16:16:20.670Z,14.55
2019-03-25T16:18:50.421Z,14.42
2019-03-25T16:21:19.922Z,14.40
2019-03-25T16:23:51.913Z,14.38
2019-03-25T16:26:21.561Z,14.34
2019-03-25T16:28:51.260Z,14.18
2019-03-25T16:31:20.853Z,14.12
2019-03-25T16:33:50.630Z,14.09
2019-03-25T16:36:20.247Z,14.06
2019-03-25T16:38:50.022Z,14.00
2019-03-25T16:41:20.104Z,13.98
2019-03-25T16:43:49.915Z,13.94
2019-03-25T16:46:19.693Z,13.85
2019-03-25T16:48:57.322Z,13.27
2019-03-25T16:51:27.146Z,13.80
2019-03-25T16:54:00.694Z,13.69
2019-03-25T16:56:32.603Z,13.64
2019-03-25T16:59:02.214Z,13.64
2019-03-25T17:01:34.917Z,13.59
2019-03-25T17:04:04.414Z,13.59
2019-03-25T17:06:34.169Z,13.57
2019-03-25T17:09:04.381Z,13.56
2019-03-25T17:11:33.976Z,13.54
2019-03-25T17:14:03.623Z,13.51
2019-03-25T17:16:33.265Z,13.52
2019-03-25T17:19:02.928Z,13.50
2019-03-25T17:21:32.505Z,13.47
2019-03-25T17:24:02.165Z,13.47
2019-03-25T17:26:41.963Z,13.39
2019-03-25T17:29:03.243Z,13.37
2019-03-25T17:31:33.139Z,13.32
2019-03-25T17:34:02.726Z,13.23
2019-03-25T17:36:32.501Z,13.17
2019-03-25T17:39:02.270Z,13.20
2019-03-25T17:41:33.429Z,13.17
2019-03-25T17:44:03.774Z,13.19
2019-03-25T17:46:33.768Z,13.14
2019-03-25T17:49:03.384Z,13.15
2019-03-25T17:51:33.081Z,13.15
2019-03-25T17:54:02.752Z,13.10
2019-03-25T17:56:32.507Z,13.02
2019-03-25T17:59:02.066Z,12.93
2019-03-25T18:01:34.030Z,12.89
2019-03-25T18:04:03.729Z,12.88
2019-03-25T18:06:33.739Z,12.88
2019-03-25T18:09:04.491Z,12.84
2019-03-25T18:11:37.047Z,12.84
2019-03-25T18:14:06.861Z,12.74
2019-03-25T18:16:36.546Z,12.66
2019-03-25T18:19:06.572Z,12.68
2019-03-25T18:21:36.240Z,12.67
2019-03-25T18:24:06.085Z,12.62
2019-03-25T18:26:35.935Z,12.54
2019-03-25T18:29:08.894Z,12.44
2019-03-25T18:31:43.209Z,12.39
2019-03-25T18:34:10.328Z,12.32
2019-03-25T18:36:40.449Z,12.36
2019-03-25T18:39:10.175Z,12.36
2019-03-25T18:41:42.598Z,12.34
2019-03-25T18:44:12.433Z,12.30
2019-03-25T18:46:42.318Z,12.27
2019-03-25T18:49:12.267Z,12.21
2019-03-25T18:51:42.075Z,12.22
2019-03-25T18:54:11.952Z,12.25
2019-03-25T18:56:43.257Z,12.28
2019-03-25T18:59:13.478Z,12.30
2019-03-25T19:01:54.148Z,12.22
2019-03-25T19:04:18.142Z,12.23
2019-03-25T19:06:51.392Z,12.21
2019-03-25T19:09:21.596Z,12.21
2019-03-25T19:11:51.408Z,12.22
2019-03-25T19:14:21.284Z,12.27
2019-03-25T19:16:51.181Z,12.29
2019-03-25T19:19:20.818Z,12.33
2019-03-25T19:21:50.518Z,12.35
2019-03-25T19:24:20.103Z,12.38
2019-03-25T19:26:50.099Z,12.43
2019-03-25T19:29:19.792Z,12.43
2019-03-25T19:31:49.468Z,12.45
2019-03-25T19:34:19.032Z,12.43
2019-03-25T19:36:48.536Z,12.43
2019-03-25T19:39:18.254Z,12.45
2019-03-25T19:41:47.991Z,12.47
2019-03-25T19:44:17.537Z,12.46
2019-03-25T19:46:47.116Z,12.47
2019-03-25T19:49:16.708Z,12.44
2019-03-25T19:51:46.317Z,12.46
2019-03-25T19:54:16.112Z,12.45
2019-03-25T19:56:45.744Z,12.47
2019-03-25T19:59:15.417Z,12.49
2019-03-25T20:01:45.199Z,12.53
2019-03-25T20:04:14.840Z,12.56
2019-03-25T20:06:44.706Z,12.60
2019-03-25T20:09:14.265Z,12.66
2019-03-25T20:11:44.137Z,12.67
2019-03-25T20:14:13.744Z,12.69
2019-03-25T20:16:43.376Z,12.72
2019-03-25T20:19:12.960Z,12.73
2019-03-25T20:21:42.516Z,12.71
2019-03-25T20:24:12.138Z,12.71
2019-03-25T20:26:41.746Z,12.72
2019-03-25T20:29:11.357Z,12.68
2019-03-25T20:31:40.900Z,12.64
2019-03-25T20:34:11.569Z,12.66
2019-03-25T20:36:41.340Z,12.64
2019-03-25T20:39:10.938Z,12.61
2019-03-25T20:41:40.587Z,12.57
2019-03-25T20:44:10.131Z,12.59
2019-03-25T20:46:39.785Z,12.55
2019-03-25T20:49:09.391Z,12.55
2019-03-25T20:51:38.969Z,12.51
2019-03-25T20:54:08.429Z,12.51
2019-03-25T20:56:37.899Z,12.51
2019-03-25T20:59:07.402Z,12.50
2019-03-25T21:01:37.206Z,12.51
2019-03-25T21:04:06.814Z,12.52
2019-03-25T21:06:36.360Z,12.54
2019-03-25T21:09:06.605Z,12.57
2019-03-25T21:11:36.279Z,12.58
2019-03-25T21:14:06.063Z,12.60
2019-03-25T21:16:35.640Z,12.62
2019-03-25T21:19:05.672Z,12.64
2019-03-25T21:21:35.429Z,12.64
2019-03-25T21:24:05.033Z,12.66
2019-03-25T21:26:34.873Z,12.66
2019-03-25T21:29:04.380Z,12.67
2019-03-25T21:31:33.968Z,12.68
2019-03-25T21:34:03.610Z,12.69
2019-03-25T21:36:33.323Z,12.70
2019-03-25T21:39:03.094Z,12.73
2019-03-25T21:41:32.659Z,12.74
2019-03-25T21:44:02.345Z,12.74
2019-03-25T21:46:31.957Z,12.69
2019-03-25T21:49:01.438Z,12.69
2019-03-25T21:51:31.129Z,12.57
2019-03-25T21:54:00.672Z,12.60
2019-03-25T21:56:30.315Z,12.58
2019-03-25T21:59:00.560Z,12.55
2019-03-25T22:01:30.194Z,12.54
2019-03-25T22:03:59.782Z,12.52
2019-03-25T22:06:29.416Z,12.53
2019-03-25T22:08:59.191Z,12.53
2019-03-25T22:11:28.741Z,12.54
2019-03-25T22:13:58.368Z,12.55
2019-03-25T22:16:27.850Z,12.56
2019-03-25T22:18:57.569Z,12.55
2019-03-25T22:21:28.843Z,12.52
2019-03-25T22:23:58.559Z,12.53
2019-03-25T22:26:28.010Z,12.53
2019-03-25T22:28:57.675Z,12.52
2019-03-25T22:31:27.143Z,12.52
2019-03-25T22:33:56.762Z,12.50
2019-03-25T22:36:26.342Z,12.46
2019-03-25T22:38:56.057Z,12.43
2019-03-25T22:41:25.684Z,12.42
2019-03-25T22:43:55.275Z,12.42
2019-03-25T22:46:24.870Z,12.45
2019-03-25T22:48:54.421Z,12.43
2019-03-25T22:51:23.996Z,12.43
2019-03-25T22:53:53.586Z,12.45
2019-03-25T22:56:24.038Z,12.48
2019-03-25T22:58:53.627Z,12.51
2019-03-25T23:01:23.315Z,12.52
2019-03-25T23:03:52.919Z,12.53
2019-03-25T23:06:22.490Z,12.54
2019-03-25T23:08:52.179Z,12.54
2019-03-25T23:11:21.776Z,12.52
2019-03-25T23:13:54.419Z,12.51
2019-03-25T23:16:24.052Z,12.49
2019-03-25T23:18:53.627Z,12.48
2019-03-25T23:21:23.067Z,12.45
2019-03-25T23:23:52.570Z,12.47
2019-03-25T23:26:22.214Z,12.46
2019-03-25T23:28:51.896Z,12.45
2019-03-25T23:31:21.485Z,12.41
2019-03-25T23:33:52.369Z,12.41
2019-03-25T23:36:22.186Z,12.40
2019-03-25T23:38:51.876Z,12.37
2019-03-25T23:41:21.532Z,12.36
2019-03-25T23:43:51.160Z,12.33
2019-03-25T23:46:20.785Z,12.31
2019-03-25T23:48:50.412Z,12.30
2019-03-25T23:51:20.056Z,12.29
2019-03-25T23:53:49.687Z,12.27
2019-03-25T23:56:19.292Z,12.20
2019-03-25T23:58:48.938Z,12.18
